sensor_id;sensor_type;location;lat;lon;timestamp;temperature;humidity
27978;DHT22;15314;49.248;6.968;2023-03-31T00:00:59;12.60;98.50
27978;DHT22;15314;49.248;6.968;2023-03-31T00:02:03;12.70;98.40
27978;DHT22;15314;49.248;6.968;2023-03-31T00:03:13;12.70;98.40
27978;DHT22;15314;49.248;6.968;2023-03-31T00:04:21;12.70;98.20
27978;DHT22;15314;49.248;6.968;2023-03-31T00:05:26;12.70;98.40
27978;DHT22;15314;49.248;6.968;2023-03-31T00:06:27;12.70;98.30
27978;DHT22;15314;49.248;6.968;2023-03-31T00:07:28;12.70;98.30
27978;DHT22;15314;49.248;6.968;2023-03-31T00:08:30;12.80;98.20
27978;DHT22;15314;49.248;6.968;2023-03-31T00:09:34;12.70;98.20
27978;DHT22;15314;49.248;6.968;2023-03-31T00:10:37;12.80;98.60
27978;DHT22;15314;49.248;6.968;2023-03-31T00:11:44;12.80;98.20
27978;DHT22;15314;49.248;6.968;2023-03-31T00:12:45;12.80;98.30
27978;DHT22;15314;49.248;6.968;2023-03-31T00:13:46;12.80;98.20
27978;DHT22;15314;49.248;6.968;2023-03-31T00:14:47;12.70;98.30
27978;DHT22;15314;49.248;6.968;2023-03-31T00:15:48;12.80;98.10
27978;DHT22;15314;49.248;6.968;2023-03-31T00:16:48;12.80;98.20
27978;DHT22;15314;49.248;6.968;2023-03-31T00:17:49;12.80;98.40
27978;DHT22;15314;49.248;6.968;2023-03-31T00:18:50;12.80;98.20
27978;DHT22;15314;49.248;6.968;2023-03-31T00:19:51;12.80;98.30
27978;DHT22;15314;49.248;6.968;2023-03-31T00:20:53;12.70;98.30
27978;DHT22;15314;49.248;6.968;2023-03-31T00:21:54;12.80;98.40
27978;DHT22;15314;49.248;6.968;2023-03-31T00:22:55;12.70;98.30
27978;DHT22;15314;49.248;6.968;2023-03-31T00:24:05;12.70;98.50
27978;DHT22;15314;49.248;6.968;2023-03-31T00:25:07;12.70;97.60
27978;DHT22;15314;49.248;6.968;2023-03-31T00:26:08;12.70;97.30
27978;DHT22;15314;49.248;6.968;2023-03-31T00:27:09;12.70;97.50
27978;DHT22;15314;49.248;6.968;2023-03-31T00:28:10;12.70;97.20
27978;DHT22;15314;49.248;6.968;2023-03-31T00:29:12;12.70;97.30
27978;DHT22;15314;49.248;6.968;2023-03-31T00:30:13;12.70;97.50
27978;DHT22;15314;49.248;6.968;2023-03-31T00:31:15;12.70;97.60
27978;DHT22;15314;49.248;6.968;2023-03-31T00:32:15;12.70;97.40
27978;DHT22;15314;49.248;6.968;2023-03-31T00:33:16;12.70;97.50
27978;DHT22;15314;49.248;6.968;2023-03-31T00:34:17;12.70;97.80
27978;DHT22;15314;49.248;6.968;2023-03-31T00:35:18;12.60;97.80
27978;DHT22;15314;49.248;6.968;2023-03-31T00:36:19;12.70;98.00
27978;DHT22;15314;49.248;6.968;2023-03-31T00:37:29;12.60;97.70
27978;DHT22;15314;49.248;6.968;2023-03-31T00:38:29;12.60;98.20
27978;DHT22;15314;49.248;6.968;2023-03-31T00:39:30;12.60;98.60
27978;DHT22;15314;49.248;6.968;2023-03-31T00:40:35;12.60;98.50
27978;DHT22;15314;49.248;6.968;2023-03-31T00:41:37;12.60;98.70
27978;DHT22;15314;49.248;6.968;2023-03-31T00:42:42;12.60;98.30
27978;DHT22;15314;49.248;6.968;2023-03-31T00:47:02;12.50;98.50
27978;DHT22;15314;49.248;6.968;2023-03-31T00:47:42;12.50;98.70
27978;DHT22;15314;49.248;6.968;2023-03-31T00:48:50;12.60;98.90
27978;DHT22;15314;49.248;6.968;2023-03-31T00:49:54;12.60;99.00
27978;DHT22;15314;49.248;6.968;2023-03-31T00:50:58;12.60;99.10
27978;DHT22;15314;49.248;6.968;2023-03-31T00:52:08;12.60;99.00
27978;DHT22;15314;49.248;6.968;2023-03-31T00:53:15;12.60;98.80
27978;DHT22;15314;49.248;6.968;2023-03-31T00:54:17;12.60;99.00
27978;DHT22;15314;49.248;6.968;2023-03-31T00:55:24;12.50;98.90
27978;DHT22;15314;49.248;6.968;2023-03-31T00:56:33;12.50;99.20
27978;DHT22;15314;49.248;6.968;2023-03-31T00:57:37;12.50;99.30
27978;DHT22;15314;49.248;6.968;2023-03-31T00:58:39;12.50;99.10
27978;DHT22;15314;49.248;6.968;2023-03-31T00:59:46;12.50;99.20
27978;DHT22;15314;49.248;6.968;2023-03-31T01:00:49;12.50;99.40
27978;DHT22;15314;49.248;6.968;2023-03-31T01:01:53;12.50;99.50
27978;DHT22;15314;49.248;6.968;2023-03-31T01:02:57;12.40;99.60
27978;DHT22;15314;49.248;6.968;2023-03-31T01:03:59;12.40;99.30
27978;DHT22;15314;49.248;6.968;2023-03-31T01:05:00;12.30;99.60
27978;DHT22;15314;49.248;6.968;2023-03-31T01:06:03;12.30;99.70
27978;DHT22;15314;49.248;6.968;2023-03-31T01:07:30;12.30;99.80
27978;DHT22;15314;49.248;6.968;2023-03-31T01:08:33;12.20;99.90
27978;DHT22;15314;49.248;6.968;2023-03-31T01:09:36;12.20;99.90
27978;DHT22;15314;49.248;6.968;2023-03-31T01:10:45;12.10;99.90
27978;DHT22;15314;49.248;6.968;2023-03-31T01:11:47;12.10;99.90
27978;DHT22;15314;49.248;6.968;2023-03-31T01:12:51;12.10;99.90
27978;DHT22;15314;49.248;6.968;2023-03-31T01:13:54;12.00;99.90
27978;DHT22;15314;49.248;6.968;2023-03-31T01:14:55;12.00;99.90
27978;DHT22;15314;49.248;6.968;2023-03-31T01:15:56;12.00;99.90
27978;DHT22;15314;49.248;6.968;2023-03-31T01:16:57;12.00;99.90
27978;DHT22;15314;49.248;6.968;2023-03-31T01:17:58;12.00;99.90
27978;DHT22;15314;49.248;6.968;2023-03-31T01:19:00;11.90;99.90
27978;DHT22;15314;49.248;6.968;2023-03-31T01:25:24;11.80;99.90
27978;DHT22;15314;49.248;6.968;2023-03-31T01:26:38;11.80;99.90
27978;DHT22;15314;49.248;6.968;2023-03-31T01:27:52;11.70;99.90
27978;DHT22;15314;49.248;6.968;2023-03-31T01:30:37;11.60;99.90
27978;DHT22;15314;49.248;6.968;2023-03-31T01:32:12;11.60;99.90
27978;DHT22;15314;49.248;6.968;2023-03-31T01:40:43;11.60;99.90
27978;DHT22;15314;49.248;6.968;2023-03-31T01:42:12;11.60;99.90
27978;DHT22;15314;49.248;6.968;2023-03-31T01:47:28;11.70;99.90
27978;DHT22;15314;49.248;6.968;2023-03-31T01:51:59;11.60;99.90
27978;DHT22;15314;49.248;6.968;2023-03-31T01:53:49;11.60;99.90
27978;DHT22;15314;49.248;6.968;2023-03-31T01:56:38;11.60;99.90
27978;DHT22;15314;49.248;6.968;2023-03-31T01:57:53;11.60;99.90
27978;DHT22;15314;49.248;6.968;2023-03-31T02:00:11;11.50;99.90
27978;DHT22;15314;49.248;6.968;2023-03-31T02:01:29;11.40;99.90
27978;DHT22;15314;49.248;6.968;2023-03-31T02:02:35;11.30;99.90
27978;DHT22;15314;49.248;6.968;2023-03-31T02:03:44;11.30;99.90
27978;DHT22;15314;49.248;6.968;2023-03-31T02:04:52;11.30;99.90
27978;DHT22;15314;49.248;6.968;2023-03-31T02:05:59;11.30;99.90
27978;DHT22;15314;49.248;6.968;2023-03-31T02:07:06;11.30;99.90
27978;DHT22;15314;49.248;6.968;2023-03-31T02:08:11;11.30;99.90
27978;DHT22;15314;49.248;6.968;2023-03-31T02:09:16;11.30;99.90
27978;DHT22;15314;49.248;6.968;2023-03-31T02:10:20;11.40;99.90
27978;DHT22;15314;49.248;6.968;2023-03-31T02:11:23;11.40;99.90
27978;DHT22;15314;49.248;6.968;2023-03-31T02:12:25;11.40;99.90
27978;DHT22;15314;49.248;6.968;2023-03-31T02:13:28;11.40;99.90
27978;DHT22;15314;49.248;6.968;2023-03-31T02:14:30;11.40;99.90
27978;DHT22;15314;49.248;6.968;2023-03-31T02:15:36;11.40;99.90
27978;DHT22;15314;49.248;6.968;2023-03-31T02:16:40;11.30;99.90
27978;DHT22;15314;49.248;6.968;2023-03-31T02:17:48;11.40;99.90
27978;DHT22;15314;49.248;6.968;2023-03-31T02:18:54;11.30;99.90
27978;DHT22;15314;49.248;6.968;2023-03-31T02:20:08;11.40;99.90
27978;DHT22;15314;49.248;6.968;2023-03-31T02:21:11;11.40;99.90
27978;DHT22;15314;49.248;6.968;2023-03-31T02:22:15;11.40;99.90
27978;DHT22;15314;49.248;6.968;2023-03-31T02:23:23;11.40;99.90
27978;DHT22;15314;49.248;6.968;2023-03-31T02:24:27;11.30;99.90
27978;DHT22;15314;49.248;6.968;2023-03-31T02:25:34;11.30;99.90
27978;DHT22;15314;49.248;6.968;2023-03-31T02:26:40;11.30;99.90
27978;DHT22;15314;49.248;6.968;2023-03-31T02:27:45;11.30;99.90
27978;DHT22;15314;49.248;6.968;2023-03-31T02:28:46;11.30;99.90
27978;DHT22;15314;49.248;6.968;2023-03-31T02:29:48;11.30;99.90
27978;DHT22;15314;49.248;6.968;2023-03-31T02:31:10;11.30;99.90
27978;DHT22;15314;49.248;6.968;2023-03-31T02:33:37;11.40;99.90
27978;DHT22;15314;49.248;6.968;2023-03-31T02:34:38;11.40;99.90
27978;DHT22;15314;49.248;6.968;2023-03-31T02:35:40;11.50;99.90
27978;DHT22;15314;49.248;6.968;2023-03-31T02:36:41;11.40;99.90
27978;DHT22;15314;49.248;6.968;2023-03-31T02:37:44;11.50;99.90
27978;DHT22;15314;49.248;6.968;2023-03-31T02:39:09;11.50;99.90
27978;DHT22;15314;49.248;6.968;2023-03-31T02:40:13;11.50;99.90
27978;DHT22;15314;49.248;6.968;2023-03-31T02:41:15;11.40;99.90
27978;DHT22;15314;49.248;6.968;2023-03-31T02:42:16;11.50;99.90
27978;DHT22;15314;49.248;6.968;2023-03-31T02:43:17;11.50;99.90
27978;DHT22;15314;49.248;6.968;2023-03-31T02:44:18;11.50;99.90
27978;DHT22;15314;49.248;6.968;2023-03-31T02:46:36;11.50;99.90
27978;DHT22;15314;49.248;6.968;2023-03-31T02:47:37;11.50;99.90
27978;DHT22;15314;49.248;6.968;2023-03-31T02:48:42;11.50;99.90
27978;DHT22;15314;49.248;6.968;2023-03-31T02:49:47;11.60;99.90
27978;DHT22;15314;49.248;6.968;2023-03-31T02:56:16;11.60;99.90
27978;DHT22;15314;49.248;6.968;2023-03-31T03:02:38;11.60;99.90
27978;DHT22;15314;49.248;6.968;2023-03-31T03:11:14;11.20;99.90
27978;DHT22;15314;49.248;6.968;2023-03-31T03:12:26;11.20;99.90
27978;DHT22;15314;49.248;6.968;2023-03-31T03:13:48;11.10;99.90
27978;DHT22;15314;49.248;6.968;2023-03-31T03:16:12;11.10;99.90
27978;DHT22;15314;49.248;6.968;2023-03-31T03:17:26;11.10;99.90
27978;DHT22;15314;49.248;6.968;2023-03-31T03:18:29;11.10;99.90
27978;DHT22;15314;49.248;6.968;2023-03-31T03:19:30;11.10;99.90
27978;DHT22;15314;49.248;6.968;2023-03-31T03:20:31;11.10;99.90
27978;DHT22;15314;49.248;6.968;2023-03-31T03:21:33;11.10;99.90
27978;DHT22;15314;49.248;6.968;2023-03-31T03:22:35;11.10;99.90
27978;DHT22;15314;49.248;6.968;2023-03-31T03:23:36;11.00;99.90
27978;DHT22;15314;49.248;6.968;2023-03-31T03:24:37;11.00;99.90
27978;DHT22;15314;49.248;6.968;2023-03-31T03:25:39;11.00;99.90
27978;DHT22;15314;49.248;6.968;2023-03-31T03:26:40;11.00;99.90
27978;DHT22;15314;49.248;6.968;2023-03-31T03:27:41;10.90;99.90
27978;DHT22;15314;49.248;6.968;2023-03-31T03:28:42;10.90;99.90
27978;DHT22;15314;49.248;6.968;2023-03-31T03:29:42;10.90;99.90
27978;DHT22;15314;49.248;6.968;2023-03-31T03:30:43;10.90;99.90
27978;DHT22;15314;49.248;6.968;2023-03-31T03:31:44;10.90;99.90
27978;DHT22;15314;49.248;6.968;2023-03-31T03:32:45;11.00;99.90
27978;DHT22;15314;49.248;6.968;2023-03-31T03:33:46;11.00;99.90
27978;DHT22;15314;49.248;6.968;2023-03-31T03:34:46;11.00;99.90
27978;DHT22;15314;49.248;6.968;2023-03-31T03:35:47;11.00;99.90
27978;DHT22;15314;49.248;6.968;2023-03-31T03:36:48;10.90;99.90
27978;DHT22;15314;49.248;6.968;2023-03-31T03:37:49;11.00;99.90
27978;DHT22;15314;49.248;6.968;2023-03-31T03:38:50;11.00;99.90
27978;DHT22;15314;49.248;6.968;2023-03-31T03:39:50;10.80;99.90
27978;DHT22;15314;49.248;6.968;2023-03-31T03:40:54;10.90;99.90
27978;DHT22;15314;49.248;6.968;2023-03-31T03:41:55;10.80;99.90
27978;DHT22;15314;49.248;6.968;2023-03-31T03:42:55;10.90;99.90
27978;DHT22;15314;49.248;6.968;2023-03-31T03:43:56;10.90;99.90
27978;DHT22;15314;49.248;6.968;2023-03-31T03:44:57;11.00;99.90
27978;DHT22;15314;49.248;6.968;2023-03-31T03:45:58;11.00;99.90
27978;DHT22;15314;49.248;6.968;2023-03-31T03:46:58;11.00;99.90
27978;DHT22;15314;49.248;6.968;2023-03-31T03:47:59;11.00;99.90
27978;DHT22;15314;49.248;6.968;2023-03-31T03:49:00;11.00;99.90
27978;DHT22;15314;49.248;6.968;2023-03-31T03:50:02;11.10;99.90
27978;DHT22;15314;49.248;6.968;2023-03-31T03:51:03;11.10;99.90
27978;DHT22;15314;49.248;6.968;2023-03-31T03:52:04;11.00;99.90
27978;DHT22;15314;49.248;6.968;2023-03-31T03:53:05;11.00;99.90
27978;DHT22;15314;49.248;6.968;2023-03-31T03:54:06;11.10;99.90
27978;DHT22;15314;49.248;6.968;2023-03-31T03:55:07;11.10;99.90
27978;DHT22;15314;49.248;6.968;2023-03-31T03:56:08;11.10;99.90
27978;DHT22;15314;49.248;6.968;2023-03-31T03:57:08;11.20;99.90
27978;DHT22;15314;49.248;6.968;2023-03-31T03:58:09;11.20;99.90
27978;DHT22;15314;49.248;6.968;2023-03-31T03:59:10;11.20;99.90
27978;DHT22;15314;49.248;6.968;2023-03-31T04:00:11;11.20;99.90
27978;DHT22;15314;49.248;6.968;2023-03-31T04:01:12;11.10;99.90
27978;DHT22;15314;49.248;6.968;2023-03-31T04:02:14;11.10;99.90
27978;DHT22;15314;49.248;6.968;2023-03-31T04:03:15;11.10;99.90
27978;DHT22;15314;49.248;6.968;2023-03-31T04:04:15;11.10;99.90
27978;DHT22;15314;49.248;6.968;2023-03-31T04:05:16;11.10;99.90
27978;DHT22;15314;49.248;6.968;2023-03-31T04:06:17;11.00;99.90
27978;DHT22;15314;49.248;6.968;2023-03-31T04:07:17;11.10;99.90
27978;DHT22;15314;49.248;6.968;2023-03-31T04:08:18;11.10;99.90
27978;DHT22;15314;49.248;6.968;2023-03-31T04:09:19;11.00;99.90
27978;DHT22;15314;49.248;6.968;2023-03-31T04:10:20;11.00;99.90
27978;DHT22;15314;49.248;6.968;2023-03-31T04:11:20;11.10;99.90
27978;DHT22;15314;49.248;6.968;2023-03-31T04:12:21;11.00;99.90
27978;DHT22;15314;49.248;6.968;2023-03-31T04:13:22;11.00;99.90
27978;DHT22;15314;49.248;6.968;2023-03-31T04:14:23;11.00;99.90
27978;DHT22;15314;49.248;6.968;2023-03-31T04:15:25;11.00;99.90
27978;DHT22;15314;49.248;6.968;2023-03-31T04:16:26;11.00;99.90
27978;DHT22;15314;49.248;6.968;2023-03-31T04:17:27;11.00;99.90
27978;DHT22;15314;49.248;6.968;2023-03-31T04:18:34;11.00;99.90
27978;DHT22;15314;49.248;6.968;2023-03-31T04:19:36;11.00;99.90
27978;DHT22;15314;49.248;6.968;2023-03-31T04:20:37;10.90;99.90
27978;DHT22;15314;49.248;6.968;2023-03-31T04:21:38;11.00;99.90
27978;DHT22;15314;49.248;6.968;2023-03-31T04:22:44;11.00;99.90
27978;DHT22;15314;49.248;6.968;2023-03-31T04:23:46;11.00;99.90
27978;DHT22;15314;49.248;6.968;2023-03-31T04:24:46;11.00;99.90
27978;DHT22;15314;49.248;6.968;2023-03-31T04:25:52;11.00;99.90
27978;DHT22;15314;49.248;6.968;2023-03-31T04:26:52;11.00;99.90
27978;DHT22;15314;49.248;6.968;2023-03-31T04:27:53;11.00;99.90
27978;DHT22;15314;49.248;6.968;2023-03-31T04:28:54;11.10;99.90
27978;DHT22;15314;49.248;6.968;2023-03-31T04:29:57;11.10;99.90
27978;DHT22;15314;49.248;6.968;2023-03-31T04:30:58;11.10;99.90
27978;DHT22;15314;49.248;6.968;2023-03-31T04:32:00;11.10;99.90
27978;DHT22;15314;49.248;6.968;2023-03-31T04:33:01;11.00;99.90
27978;DHT22;15314;49.248;6.968;2023-03-31T04:34:04;10.90;99.90
27978;DHT22;15314;49.248;6.968;2023-03-31T04:35:06;10.90;99.90
27978;DHT22;15314;49.248;6.968;2023-03-31T04:36:07;10.90;99.90
27978;DHT22;15314;49.248;6.968;2023-03-31T04:37:17;10.90;99.90
27978;DHT22;15314;49.248;6.968;2023-03-31T04:38:20;11.00;99.90
27978;DHT22;15314;49.248;6.968;2023-03-31T04:39:21;11.00;99.90
27978;DHT22;15314;49.248;6.968;2023-03-31T04:40:26;11.00;99.90
27978;DHT22;15314;49.248;6.968;2023-03-31T04:41:27;10.90;99.90
27978;DHT22;15314;49.248;6.968;2023-03-31T04:42:27;10.80;99.90
27978;DHT22;15314;49.248;6.968;2023-03-31T04:43:28;10.90;99.90
27978;DHT22;15314;49.248;6.968;2023-03-31T04:44:29;10.90;99.90
27978;DHT22;15314;49.248;6.968;2023-03-31T04:45:30;10.90;99.90
27978;DHT22;15314;49.248;6.968;2023-03-31T04:46:32;10.80;99.90
27978;DHT22;15314;49.248;6.968;2023-03-31T04:47:33;10.70;99.90
27978;DHT22;15314;49.248;6.968;2023-03-31T04:48:34;10.80;99.90
27978;DHT22;15314;49.248;6.968;2023-03-31T04:49:35;10.70;99.90
27978;DHT22;15314;49.248;6.968;2023-03-31T04:50:36;10.80;99.90
27978;DHT22;15314;49.248;6.968;2023-03-31T04:51:37;10.80;99.90
27978;DHT22;15314;49.248;6.968;2023-03-31T04:52:38;10.70;99.90
27978;DHT22;15314;49.248;6.968;2023-03-31T04:53:39;10.70;99.90
27978;DHT22;15314;49.248;6.968;2023-03-31T04:54:40;10.70;99.90
27978;DHT22;15314;49.248;6.968;2023-03-31T04:55:40;10.70;99.90
27978;DHT22;15314;49.248;6.968;2023-03-31T04:56:41;10.80;99.90
27978;DHT22;15314;49.248;6.968;2023-03-31T04:57:42;10.70;99.90
27978;DHT22;15314;49.248;6.968;2023-03-31T04:58:43;10.70;99.90
27978;DHT22;15314;49.248;6.968;2023-03-31T04:59:44;10.70;99.90
27978;DHT22;15314;49.248;6.968;2023-03-31T05:00:45;10.80;99.90
27978;DHT22;15314;49.248;6.968;2023-03-31T05:01:46;10.70;99.90
27978;DHT22;15314;49.248;6.968;2023-03-31T05:02:47;10.60;99.90
27978;DHT22;15314;49.248;6.968;2023-03-31T05:03:48;10.60;99.90
27978;DHT22;15314;49.248;6.968;2023-03-31T05:04:49;10.50;99.90
27978;DHT22;15314;49.248;6.968;2023-03-31T05:05:51;10.60;99.90
27978;DHT22;15314;49.248;6.968;2023-03-31T05:06:51;10.50;99.90
27978;DHT22;15314;49.248;6.968;2023-03-31T05:07:52;10.50;99.90
27978;DHT22;15314;49.248;6.968;2023-03-31T05:08:53;10.50;99.90
27978;DHT22;15314;49.248;6.968;2023-03-31T05:09:55;10.50;99.90
27978;DHT22;15314;49.248;6.968;2023-03-31T05:10:55;10.40;99.90
27978;DHT22;15314;49.248;6.968;2023-03-31T05:11:57;10.40;99.90
27978;DHT22;15314;49.248;6.968;2023-03-31T05:12:57;10.30;99.90
27978;DHT22;15314;49.248;6.968;2023-03-31T05:13:58;10.30;99.90
27978;DHT22;15314;49.248;6.968;2023-03-31T05:14:59;10.30;99.90
27978;DHT22;15314;49.248;6.968;2023-03-31T05:16:07;10.30;99.90
27978;DHT22;15314;49.248;6.968;2023-03-31T05:17:08;10.30;99.90
27978;DHT22;15314;49.248;6.968;2023-03-31T05:18:09;10.30;99.90
27978;DHT22;15314;49.248;6.968;2023-03-31T05:19:10;10.30;99.90
27978;DHT22;15314;49.248;6.968;2023-03-31T05:20:11;10.30;99.90
27978;DHT22;15314;49.248;6.968;2023-03-31T05:21:17;10.30;99.90
27978;DHT22;15314;49.248;6.968;2023-03-31T05:22:18;10.30;99.90
27978;DHT22;15314;49.248;6.968;2023-03-31T05:23:20;10.30;99.90
27978;DHT22;15314;49.248;6.968;2023-03-31T05:24:20;10.30;99.90
27978;DHT22;15314;49.248;6.968;2023-03-31T05:25:21;10.30;99.90
27978;DHT22;15314;49.248;6.968;2023-03-31T05:26:23;10.40;99.90
27978;DHT22;15314;49.248;6.968;2023-03-31T05:27:24;10.30;99.90
27978;DHT22;15314;49.248;6.968;2023-03-31T05:28:25;10.40;99.90
27978;DHT22;15314;49.248;6.968;2023-03-31T05:29:26;10.40;99.90
27978;DHT22;15314;49.248;6.968;2023-03-31T05:30:27;10.40;99.90
27978;DHT22;15314;49.248;6.968;2023-03-31T05:31:29;10.40;99.90
27978;DHT22;15314;49.248;6.968;2023-03-31T05:32:29;10.40;99.90
27978;DHT22;15314;49.248;6.968;2023-03-31T05:33:30;10.40;99.90
27978;DHT22;15314;49.248;6.968;2023-03-31T05:34:31;10.40;99.90
27978;DHT22;15314;49.248;6.968;2023-03-31T05:35:32;10.50;99.90
27978;DHT22;15314;49.248;6.968;2023-03-31T05:36:33;10.50;99.90
27978;DHT22;15314;49.248;6.968;2023-03-31T05:37:34;10.50;99.90
27978;DHT22;15314;49.248;6.968;2023-03-31T05:38:35;10.60;99.90
27978;DHT22;15314;49.248;6.968;2023-03-31T05:39:36;10.60;99.90
27978;DHT22;15314;49.248;6.968;2023-03-31T05:40:36;10.60;99.90
27978;DHT22;15314;49.248;6.968;2023-03-31T05:41:37;10.60;99.90
27978;DHT22;15314;49.248;6.968;2023-03-31T05:42:38;10.70;99.90
27978;DHT22;15314;49.248;6.968;2023-03-31T05:43:38;10.70;99.90
27978;DHT22;15314;49.248;6.968;2023-03-31T05:44:39;10.70;99.90
27978;DHT22;15314;49.248;6.968;2023-03-31T05:45:40;10.70;99.90
27978;DHT22;15314;49.248;6.968;2023-03-31T05:46:41;10.80;99.90
27978;DHT22;15314;49.248;6.968;2023-03-31T05:47:41;10.80;99.90
27978;DHT22;15314;49.248;6.968;2023-03-31T05:48:42;10.90;99.90
27978;DHT22;15314;49.248;6.968;2023-03-31T05:49:44;10.90;99.90
27978;DHT22;15314;49.248;6.968;2023-03-31T05:50:45;10.90;99.90
27978;DHT22;15314;49.248;6.968;2023-03-31T05:51:45;10.90;99.90
27978;DHT22;15314;49.248;6.968;2023-03-31T05:52:47;10.90;99.90
27978;DHT22;15314;49.248;6.968;2023-03-31T05:53:47;10.90;99.90
27978;DHT22;15314;49.248;6.968;2023-03-31T05:54:48;10.90;99.90
27978;DHT22;15314;49.248;6.968;2023-03-31T05:55:49;11.00;99.90
27978;DHT22;15314;49.248;6.968;2023-03-31T05:56:50;10.90;99.90
27978;DHT22;15314;49.248;6.968;2023-03-31T05:57:50;11.00;99.90
27978;DHT22;15314;49.248;6.968;2023-03-31T05:58:51;11.00;99.90
27978;DHT22;15314;49.248;6.968;2023-03-31T05:59:52;11.00;99.90
27978;DHT22;15314;49.248;6.968;2023-03-31T06:01:15;11.00;99.90
27978;DHT22;15314;49.248;6.968;2023-03-31T06:02:19;11.00;99.90
27978;DHT22;15314;49.248;6.968;2023-03-31T06:03:19;11.10;99.90
27978;DHT22;15314;49.248;6.968;2023-03-31T06:04:20;11.10;99.90
27978;DHT22;15314;49.248;6.968;2023-03-31T06:05:21;11.10;99.90
27978;DHT22;15314;49.248;6.968;2023-03-31T06:06:25;11.10;99.90
27978;DHT22;15314;49.248;6.968;2023-03-31T06:07:27;11.10;99.90
27978;DHT22;15314;49.248;6.968;2023-03-31T06:08:28;11.10;99.90
27978;DHT22;15314;49.248;6.968;2023-03-31T06:09:29;11.20;99.90
27978;DHT22;15314;49.248;6.968;2023-03-31T06:10:30;11.20;99.90
27978;DHT22;15314;49.248;6.968;2023-03-31T06:11:30;11.20;99.90
27978;DHT22;15314;49.248;6.968;2023-03-31T06:12:31;11.20;99.90
27978;DHT22;15314;49.248;6.968;2023-03-31T06:13:33;11.30;99.90
27978;DHT22;15314;49.248;6.968;2023-03-31T06:14:34;11.30;99.90
27978;DHT22;15314;49.248;6.968;2023-03-31T06:15:34;11.40;99.90
27978;DHT22;15314;49.248;6.968;2023-03-31T06:16:36;11.40;99.90
27978;DHT22;15314;49.248;6.968;2023-03-31T06:17:37;11.60;99.90
27978;DHT22;15314;49.248;6.968;2023-03-31T06:18:39;11.70;99.90
27978;DHT22;15314;49.248;6.968;2023-03-31T06:19:39;11.80;99.90
27978;DHT22;15314;49.248;6.968;2023-03-31T06:20:41;11.80;99.90
27978;DHT22;15314;49.248;6.968;2023-03-31T06:21:41;11.80;99.90
27978;DHT22;15314;49.248;6.968;2023-03-31T06:22:42;11.80;99.90
27978;DHT22;15314;49.248;6.968;2023-03-31T06:23:44;11.70;99.90
27978;DHT22;15314;49.248;6.968;2023-03-31T06:24:44;11.70;99.90
27978;DHT22;15314;49.248;6.968;2023-03-31T06:25:45;11.70;99.90
27978;DHT22;15314;49.248;6.968;2023-03-31T06:26:46;11.70;99.90
27978;DHT22;15314;49.248;6.968;2023-03-31T06:27:46;11.70;99.90
27978;DHT22;15314;49.248;6.968;2023-03-31T06:28:48;11.60;99.90
27978;DHT22;15314;49.248;6.968;2023-03-31T06:29:48;11.60;99.90
27978;DHT22;15314;49.248;6.968;2023-03-31T06:30:49;11.60;99.90
27978;DHT22;15314;49.248;6.968;2023-03-31T06:31:50;11.70;99.90
27978;DHT22;15314;49.248;6.968;2023-03-31T06:32:50;11.70;99.90
27978;DHT22;15314;49.248;6.968;2023-03-31T06:33:51;11.80;99.90
27978;DHT22;15314;49.248;6.968;2023-03-31T06:34:52;11.90;99.90
27978;DHT22;15314;49.248;6.968;2023-03-31T06:35:56;11.90;99.90
27978;DHT22;15314;49.248;6.968;2023-03-31T06:36:58;11.90;99.90
27978;DHT22;15314;49.248;6.968;2023-03-31T06:37:59;11.80;99.90
27978;DHT22;15314;49.248;6.968;2023-03-31T06:39:00;11.80;99.90
27978;DHT22;15314;49.248;6.968;2023-03-31T06:40:01;11.70;99.90
27978;DHT22;15314;49.248;6.968;2023-03-31T06:41:02;11.70;99.90
27978;DHT22;15314;49.248;6.968;2023-03-31T06:42:02;11.70;99.90
27978;DHT22;15314;49.248;6.968;2023-03-31T06:43:03;11.60;99.90
27978;DHT22;15314;49.248;6.968;2023-03-31T06:44:04;11.60;99.90
27978;DHT22;15314;49.248;6.968;2023-03-31T06:45:05;11.60;99.90
27978;DHT22;15314;49.248;6.968;2023-03-31T06:46:06;11.50;99.90
27978;DHT22;15314;49.248;6.968;2023-03-31T06:47:07;11.50;99.90
27978;DHT22;15314;49.248;6.968;2023-03-31T06:48:07;11.50;99.90
27978;DHT22;15314;49.248;6.968;2023-03-31T06:49:08;11.50;99.90
27978;DHT22;15314;49.248;6.968;2023-03-31T06:50:09;11.60;99.90
27978;DHT22;15314;49.248;6.968;2023-03-31T06:51:10;11.50;99.90
27978;DHT22;15314;49.248;6.968;2023-03-31T06:52:11;11.60;99.90
27978;DHT22;15314;49.248;6.968;2023-03-31T06:53:12;11.60;99.90
27978;DHT22;15314;49.248;6.968;2023-03-31T06:54:12;11.60;99.90
27978;DHT22;15314;49.248;6.968;2023-03-31T06:55:13;11.60;99.90
27978;DHT22;15314;49.248;6.968;2023-03-31T06:56:15;11.70;99.90
27978;DHT22;15314;49.248;6.968;2023-03-31T06:57:16;11.70;99.90
27978;DHT22;15314;49.248;6.968;2023-03-31T06:58:17;11.70;99.90
27978;DHT22;15314;49.248;6.968;2023-03-31T06:59:17;11.70;99.90
27978;DHT22;15314;49.248;6.968;2023-03-31T07:00:18;11.70;99.90
27978;DHT22;15314;49.248;6.968;2023-03-31T07:01:19;11.70;99.90
27978;DHT22;15314;49.248;6.968;2023-03-31T07:02:20;11.80;99.90
27978;DHT22;15314;49.248;6.968;2023-03-31T07:03:20;11.90;99.90
27978;DHT22;15314;49.248;6.968;2023-03-31T07:04:21;12.00;99.90
27978;DHT22;15314;49.248;6.968;2023-03-31T07:05:22;12.10;99.90
27978;DHT22;15314;49.248;6.968;2023-03-31T07:06:27;12.30;99.90
27978;DHT22;15314;49.248;6.968;2023-03-31T07:07:30;12.30;99.90
27978;DHT22;15314;49.248;6.968;2023-03-31T07:08:32;12.30;99.90
27978;DHT22;15314;49.248;6.968;2023-03-31T07:09:32;12.20;99.90
27978;DHT22;15314;49.248;6.968;2023-03-31T07:10:33;12.20;99.90
27978;DHT22;15314;49.248;6.968;2023-03-31T07:11:34;12.20;99.90
27978;DHT22;15314;49.248;6.968;2023-03-31T07:12:35;12.10;99.90
27978;DHT22;15314;49.248;6.968;2023-03-31T07:13:35;12.10;99.90
27978;DHT22;15314;49.248;6.968;2023-03-31T07:14:36;12.10;99.90
27978;DHT22;15314;49.248;6.968;2023-03-31T07:15:36;12.10;99.90
27978;DHT22;15314;49.248;6.968;2023-03-31T07:16:37;12.20;99.90
27978;DHT22;15314;49.248;6.968;2023-03-31T07:17:38;12.30;99.90
27978;DHT22;15314;49.248;6.968;2023-03-31T07:18:41;12.30;99.90
27978;DHT22;15314;49.248;6.968;2023-03-31T07:19:42;12.40;99.90
27978;DHT22;15314;49.248;6.968;2023-03-31T07:20:48;12.40;99.90
27978;DHT22;15314;49.248;6.968;2023-03-31T07:21:50;12.30;99.90
27978;DHT22;15314;49.248;6.968;2023-03-31T07:22:50;12.30;99.90
27978;DHT22;15314;49.248;6.968;2023-03-31T07:23:51;12.30;99.90
27978;DHT22;15314;49.248;6.968;2023-03-31T07:24:52;12.30;99.90
27978;DHT22;15314;49.248;6.968;2023-03-31T07:25:52;12.40;99.90
27978;DHT22;15314;49.248;6.968;2023-03-31T07:26:53;12.60;99.90